Flight Track Log - Related Links

Times and Time Zones

All times are in EDT time to prevent confusion due to time zone crossing. See the N118RT flight status page for this flight to view local times or setup timezone preferences in your user account.

Time Position Orientation Groundspeed Altitude Reporting Facility
EDT Latitude Longitude Course Direction KTS MPH feet Rate Location/Type
Wed 08:05:46 PM 31.7981 -106.4039 214° Southwest 209 241 4,500  Level Albuquerque Center
Wed 08:06:17 PM 31.7778 -106.4200 214° Southwest 219 252 5,500 1,677 Climbing Albuquerque Center
Wed 08:07:19 PM 31.7322 -106.3689 136° Southeast 242 278 7,100 2,081 Climbing Albuquerque Center
Wed 08:08:21 PM 31.6892 -106.3050 128° Southeast 250 288 9,800 2,488 Climbing Albuquerque Center
Wed 08:09:22 PM 31.6411 -106.2397 131° Southeast 265 305 12,200 2,293 Climbing Albuquerque Center
Wed 08:10:24 PM 31.5908 -106.1733 132° Southeast 272 313 14,500 2,081 Climbing Albuquerque Center
Wed 08:11:26 PM 31.5369 -106.1028 132° Southeast 288 331 16,500 2,129 Climbing Albuquerque Center
Wed 08:12:28 PM 31.4672 -106.0114 132° Southeast 313 360 18,900 2,244 Climbing Albuquerque Center
Wed 08:13:29 PM 31.4075 -105.9347 132° Southeast 318 366 21,100 2,049 Climbing Albuquerque Center
Wed 08:14:31 PM 31.3489 -105.8583 132° Southeast 317 365 23,100 1,935 Climbing Albuquerque Center
Wed 08:15:33 PM 31.2908 -105.7833 132° Southeast 312 359 25,100 1,790 Climbing Albuquerque Center
Wed 08:16:35 PM 31.2331 -105.7100 133° Southeast 309 356 26,800 1,500 Climbing Albuquerque Center
Wed 08:17:37 PM 31.1747 -105.6331 132° Southeast 316 364 28,200 1,597 Climbing Albuquerque Center
Wed 08:18:39 PM 31.1025 -105.5397 132° Southeast 321 369 30,100 1,610 Climbing Albuquerque Center
Wed 08:19:40 PM 31.0425 -105.4625 132° Southeast 321 369 31,500 1,268 Climbing Albuquerque Center
Wed 08:20:42 PM 30.9703 -105.4150 151° Southeast 315 362 32,700 1,113 Climbing Albuquerque Center
Wed 08:21:44 PM 30.8908 -105.3867 163° South 305 351 33,800 1,016 Climbing Albuquerque Center
Wed 08:22:46 PM 30.8117 -105.3575 162° South 302 348 34,800 823 Climbing Albuquerque Center
Wed 08:23:48 PM 30.7300 -105.3256 161° South 308 354 35,500 780 Climbing Albuquerque Center
Wed 08:24:49 PM 30.6303 -105.2875 162° South 315 362 36,400 885 Climbing Albuquerque Center
Wed 08:26:00 PM 30.5369 -105.3230 198° South  Level FlightAware Approximate
Wed 08:33:00 PM 29.9541 -105.4000 180° South  Level FlightAware Approximate
Wed 08:34:00 PM 29.8711 -105.4039 183° South  Level FlightAware Approximate
Wed 08:35:00 PM 29.7882 -105.4091 183° South  Level FlightAware Approximate
Wed 08:36:00 PM 29.7053 -105.4143 183° South  Level FlightAware Approximate
Wed 08:37:00 PM 29.6223 -105.4172 181° South  Level FlightAware Approximate
Wed 08:38:00 PM 29.5393 -105.4181 181° South  Level FlightAware Approximate
Wed 08:39:00 PM 29.4562 -105.4191 181° South  Level FlightAware Approximate
Wed 08:40:00 PM 29.3732 -105.4200 181° South  Level FlightAware Approximate
Wed 08:41:00 PM 29.2901 -105.4210 181° South  Level FlightAware Approximate
Wed 08:42:00 PM 29.2071 -105.4219 181° South  Level FlightAware Approximate
Wed 08:43:00 PM 29.1241 -105.4229 181° South  Level FlightAware Approximate
Wed 08:44:00 PM 29.0410 -105.4238 181° South  Level FlightAware Approximate
Wed 08:45:00 PM 28.9580 -105.4248 181° South  Level FlightAware Approximate
Wed 08:46:00 PM 28.8749 -105.4257 181° South  Level FlightAware Approximate
Wed 08:47:00 PM 28.7919 -105.4267 181° South  Level FlightAware Approximate
Wed 08:48:00 PM 28.7089 -105.4276 181° South  Level FlightAware Approximate
Wed 08:49:00 PM 28.6258 -105.4285 181° South  Level FlightAware Approximate
Wed 08:50:00 PM 28.5428 -105.4295 181° South  Level FlightAware Approximate
Wed 08:51:00 PM 28.4597 -105.4304 181° South  Level FlightAware Approximate
Wed 08:52:00 PM 28.3767 -105.4314 181° South  Level FlightAware Approximate
Wed 08:53:00 PM 28.2937 -105.4323 181° South  Level FlightAware Approximate
Wed 08:54:00 PM 28.2106 -105.4332 181° South  Level FlightAware Approximate
Wed 08:55:00 PM 28.1411 -105.3855 144° Southeast  Level FlightAware Approximate
Wed 08:56:00 PM 28.0735 -105.3308 144° Southeast  Level FlightAware Approximate
Wed 08:57:00 PM 28.0059 -105.2762 144° Southeast  Level FlightAware Approximate
Wed 08:58:00 PM 27.9382 -105.2216 145° Southeast  Level FlightAware Approximate
Wed 08:59:00 PM 27.8706 -105.1671 145° Southeast  Level FlightAware Approximate
Wed 09:00:00 PM 27.8029 -105.1127 145° Southeast  Level FlightAware Approximate
Wed 09:01:00 PM 27.7352 -105.0583 145° Southeast  Level FlightAware Approximate
Wed 09:02:00 PM 27.6675 -105.0040 145° Southeast  Level FlightAware Approximate
Wed 09:03:00 PM 27.5998 -104.9497 145° Southeast  Level FlightAware Approximate
Wed 09:04:00 PM 27.5321 -104.8955 145° Southeast  Level FlightAware Approximate
Wed 09:05:00 PM 27.4643 -104.8414 145° Southeast  Level FlightAware Approximate
Wed 09:06:00 PM 27.3956 -104.7888 147° Southeast  Level FlightAware Approximate
Wed 09:07:00 PM 27.3262 -104.7375 147° Southeast  Level FlightAware Approximate
Wed 09:08:00 PM 27.2567 -104.6863 147° Southeast  Level FlightAware Approximate
Wed 09:09:00 PM 27.1872 -104.6352 147° Southeast  Level FlightAware Approximate
Wed 09:10:00 PM 27.1177 -104.5841 147° Southeast  Level FlightAware Approximate
Wed 09:11:00 PM 27.0487 -104.5323 145° Southeast  Level FlightAware Approximate
Wed 09:12:00 PM 26.9807 -104.4788 145° Southeast  Level FlightAware Approximate
Wed 09:13:00 PM 26.9127 -104.4253 145° Southeast  Level FlightAware Approximate
Wed 09:14:00 PM 26.8446 -104.3719 145° Southeast  Level FlightAware Approximate
Wed 09:15:00 PM 26.7766 -104.3185 145° Southeast  Level FlightAware Approximate
Wed 09:16:00 PM 26.7087 -104.2650 145° Southeast  Level FlightAware Approximate
Wed 09:17:00 PM 26.6407 -104.2117 145° Southeast  Level FlightAware Approximate
Wed 09:18:00 PM 26.5725 -104.1586 146° Southeast  Level FlightAware Approximate
Wed 09:19:00 PM 26.5033 -104.1073 146° Southeast  Level FlightAware Approximate
Wed 09:20:00 PM 26.4341 -104.0561 146° Southeast  Level FlightAware Approximate
Wed 09:21:00 PM 26.3648 -104.0049 146° Southeast  Level FlightAware Approximate
Wed 09:22:00 PM 26.2956 -103.9538 147° Southeast  Level FlightAware Approximate
Wed 09:23:00 PM 26.2263 -103.9027 147° Southeast  Level FlightAware Approximate
Wed 09:24:00 PM 26.1573 -103.8513 146° Southeast  Level FlightAware Approximate
Wed 09:25:00 PM 26.0884 -103.7996 146° Southeast  Level FlightAware Approximate
Wed 09:26:00 PM 26.0191 -103.7487 147° Southeast  Level FlightAware Approximate
Wed 09:27:00 PM 25.9496 -103.6981 147° Southeast  Level FlightAware Approximate
Wed 09:28:00 PM 25.8803 -103.6473 142° Southeast  Level FlightAware Approximate
Wed 09:29:00 PM 25.8150 -103.5902 142° Southeast  Level FlightAware Approximate
Wed 09:30:00 PM 25.7498 -103.5332 149° Southeast  Level FlightAware Approximate
Wed 09:31:00 PM 25.6812 -103.4817 146° Southeast  Level FlightAware Approximate
Wed 09:32:00 PM 25.6123 -103.4304 149° Southeast  Level FlightAware Approximate
Wed 09:33:00 PM 25.5667 -103.4167 270° West  Level FlightAware Approximate
Wed 09:34:00 PM 25.5683 -103.4106 270° West  Level Estimated
Wed 09:35:00 PM 25.5667 -103.4167 270° West  Level FlightAware Approximate
Wed 09:36:00 PM 25.5683 -103.4106 270° West  Level Estimated
Wed 09:37:00 PM 25.5667 -103.4167 270° West  Level FlightAware Approximate
Wed 09:38:00 PM 25.5683 -103.4106 270° West  Level Estimated
Wed 09:39:00 PM 25.5667 -103.4167 270° West  Level FlightAware Approximate
Wed 09:40:00 PM 25.5683 -103.4106 270° West  Level Estimated
Wed 09:41:00 PM 25.5667 -103.4167 270° West  Level FlightAware Approximate
Wed 09:42:00 PM 25.5683 -103.4106 270° West  Level Estimated
Wed 09:43:00 PM 25.5667 -103.4167 270° West  Level FlightAware Approximate
Wed 09:44:00 PM 25.5683 -103.4106 270° West  Level Estimated
Wed 09:45:00 PM 25.5667 -103.4167 270° West  Level FlightAware Approximate
Wed 09:46:00 PM 25.5683 -103.4106 270° West  Level Estimated
Wed 09:47:00 PM 25.5667 -103.4167 270° West  Level FlightAware Approximate

Login

Don't have an account? Register now (free) for customized features, flight alerts, and more!